Time;durP1;ratioP1;P1;durP2;ratioP2;P2;SDS_P1;SDS_P2;PMS_P1;PMS_P2;Temp;Humidity;BMP_temperature;BMP_pressure;BME280_temperature;BME280_humidity;BME280_pressure;Samples;Min_cycle;Max_cycle;Signal;HPM_P1;HPM_P2
2022/07/22 00:02:21;;;;;;;7.30;5.57;;;25.00;61.00;;;-142.21;82.50;112049.66;5113066;28;20246;-78
2022/07/22 00:04:48;;;;;;;5.80;5.20;;;25.00;61.10;;;-142.21;82.82;112049.66;5112561;28;20201;-77
2022/07/22 00:07:16;;;;;;;6.13;5.47;;;25.00;61.00;;;-142.21;83.42;112049.66;5112840;28;20290;-79
2022/07/22 00:09:43;;;;;;;6.97;5.83;;;25.00;61.30;;;-142.21;83.28;112049.66;5112390;28;20210;-80
2022/07/22 00:12:11;;;;;;;6.23;5.23;;;25.00;61.20;;;-142.21;83.59;112049.66;5113202;28;20686;-78
2022/07/22 00:14:38;;;;;;;6.90;6.20;;;24.90;61.40;;;-142.21;83.64;112049.66;5094922;28;20200;-81
2022/07/22 00:17:05;;;;;;;7.83;6.00;;;24.90;62.10;;;-142.21;83.93;112049.66;5113149;28;20210;-79
2022/07/22 00:19:34;;;;;;;6.77;6.07;;;24.90;61.50;;;-142.21;83.84;112049.66;5112469;28;20208;-79
2022/07/22 00:22:01;;;;;;;6.97;6.27;;;24.90;61.60;;;-142.21;84.04;112049.66;5112225;28;20573;-79
2022/07/22 00:24:28;;;;;;;5.80;5.30;;;24.80;62.30;;;-142.21;84.45;112049.66;5113122;28;20753;-79
2022/07/22 00:26:59;;;;;;;7.20;6.20;;;24.80;61.70;;;-142.21;84.62;112049.66;5112409;28;20212;-78
2022/07/22 00:29:26;;;;;;;6.20;5.57;;;24.80;61.80;;;-142.21;84.89;112049.66;5112890;28;20219;-78
2022/07/22 00:31:53;;;;;;;6.37;5.70;;;24.80;61.80;;;-142.21;84.88;112049.66;5112521;28;20235;-78
2022/07/22 00:34:20;;;;;;;6.20;5.60;;;24.80;62.00;;;-142.21;85.09;112049.66;5112838;28;20592;-79
2022/07/22 00:36:49;;;;;;;6.10;5.50;;;24.80;62.20;;;-142.21;85.11;112049.66;5111769;28;20246;-79
2022/07/22 00:39:16;;;;;;;6.33;5.70;;;24.70;62.30;;;-142.21;85.42;112049.66;5112776;28;20204;-79
2022/07/22 00:41:44;;;;;;;6.53;5.93;;;24.80;62.40;;;-142.21;85.87;112049.66;5112243;28;20196;-78
2022/07/22 00:44:11;;;;;;;8.43;6.13;;;24.70;62.50;;;-142.21;86.28;112049.66;5112852;28;20206;-78
2022/07/22 00:46:39;;;;;;;6.10;5.50;;;24.70;62.60;;;-142.21;86.37;112049.66;5112814;28;20290;-79
2022/07/22 00:49:08;;;;;;;7.73;6.20;;;24.60;62.60;;;-142.21;86.45;112049.66;5112358;28;20294;-78
2022/07/22 00:51:39;;;;;;;6.97;6.37;;;24.60;63.90;;;-142.21;86.67;112049.66;5112237;28;20200;-78
2022/07/22 00:54:09;;;;;;;7.87;6.30;;;24.60;63.10;;;-142.21;87.14;112049.66;5112327;28;20280;-79
2022/07/22 00:56:37;;;;;;;6.77;6.10;;;24.60;63.50;;;-142.21;87.17;112049.66;5112550;28;20204;-78
2022/07/22 00:59:09;;;;;;;6.60;5.83;;;24.60;63.50;;;-142.21;86.97;112049.66;5094583;28;20199;-79
2022/07/22 01:01:37;;;;;;;6.63;5.97;;;24.60;63.50;;;-142.21;87.70;112049.66;5112215;28;20574;-79
2022/07/22 01:04:04;;;;;;;6.63;5.80;;;24.50;63.30;;;-142.21;88.21;112049.66;5111947;28;20203;-78
2022/07/22 01:06:34;;;;;;;7.97;7.00;;;24.50;63.70;;;-142.21;88.65;112049.66;5112463;28;20215;-78
2022/07/22 01:09:01;;;;;;;6.90;6.20;;;24.50;64.10;;;-142.21;88.59;112049.66;5111973;28;20218;-79
2022/07/22 01:11:30;;;;;;;6.47;5.87;;;24.40;64.10;;;-142.21;88.45;112049.66;5112541;28;20234;-79
2022/07/22 01:13:58;;;;;;;7.73;6.93;;;24.40;64.90;;;-142.21;88.29;112049.66;5112039;28;20266;-79
2022/07/22 01:16:26;;;;;;;8.70;6.20;;;24.40;64.10;;;-142.21;88.53;112049.66;5112289;28;20204;-79
2022/07/22 01:18:54;;;;;;;6.90;6.20;;;24.30;64.10;;;-142.21;88.15;112049.66;5111799;28;20765;-79
2022/07/22 01:21:22;;;;;;;6.70;6.10;;;24.30;63.90;;;-142.21;88.96;112049.66;5111951;28;20290;-79
2022/07/22 01:23:50;;;;;;;6.83;6.03;;;24.20;64.30;;;-142.21;88.90;112049.66;5112006;28;20203;-79
2022/07/22 01:26:18;;;;;;;6.43;5.93;;;24.30;64.30;;;-142.21;89.37;112049.66;5094154;28;20212;-79
2022/07/22 01:28:48;;;;;;;7.00;6.30;;;24.20;65.40;;;-142.21;89.42;112049.66;5111869;28;20226;-80
2022/07/22 01:31:15;;;;;;;6.83;5.80;;;24.10;64.60;;;-142.21;89.91;112049.66;5116062;28;20270;-79
2022/07/22 01:33:43;;;;;;;7.33;5.93;;;24.10;64.70;;;-142.21;90.38;112049.66;5098254;28;20226;-79
2022/07/22 01:36:11;;;;;;;7.10;6.40;;;24.10;64.90;;;-142.21;90.98;112049.66;5115859;28;20203;-79
2022/07/22 01:38:40;;;;;;;7.20;6.43;;;23.90;65.30;;;-142.21;91.34;112049.66;5116090;28;20306;-79
2022/07/22 01:41:07;;;;;;;7.00;6.37;;;23.90;65.70;;;-142.21;91.60;112049.66;5115510;28;20210;-79
2022/07/22 01:43:35;;;;;;;6.83;6.13;;;23.80;65.70;;;-142.21;91.67;112049.66;5095693;28;20204;-79
2022/07/22 01:46:02;;;;;;;7.10;6.50;;;23.80;65.80;;;-142.21;91.79;112049.66;5095035;28;20211;-79
2022/07/22 01:48:30;;;;;;;6.43;5.83;;;23.80;66.60;;;-142.21;91.82;112049.66;5077021;28;20209;-78
2022/07/22 01:50:57;;;;;;;6.60;6.00;;;23.80;66.00;;;-142.21;91.96;112049.66;5104822;28;20215;-78
2022/07/22 01:53:29;;;;;;;6.67;6.07;;;23.80;66.20;;;-142.21;92.12;112049.66;5115558;28;20692;-78
2022/07/22 01:55:58;;;;;;;6.83;6.07;;;23.70;66.10;;;-142.21;92.47;112049.66;5115297;28;20194;-78
2022/07/22 01:58:25;;;;;;;7.60;6.23;;;23.70;66.10;;;-142.21;92.58;112049.66;5115621;28;20241;-78
2022/07/22 02:00:53;;;;;;;6.70;6.07;;;23.60;66.30;;;-142.21;92.76;112049.66;5114702;28;20213;-78
2022/07/22 02:03:23;;;;;;;7.70;6.27;;;23.60;66.40;;;-142.21;92.18;112049.66;5115605;28;20567;-78
2022/07/22 02:05:50;;;;;;;7.40;6.63;;;23.60;66.40;;;-142.21;92.25;112049.66;5114968;28;20290;-78
2022/07/22 02:08:17;;;;;;;6.77;6.10;;;23.60;66.20;;;-142.21;92.32;112049.66;5080538;28;20576;-78
2022/07/22 02:10:45;;;;;;;7.10;6.33;;;23.60;66.20;;;-142.21;92.71;112049.66;5115375;28;20290;-79
2022/07/22 02:13:14;;;;;;;7.67;6.47;;;23.60;66.60;;;-142.21;92.68;112049.66;5115014;28;20239;-79
2022/07/22 02:15:41;;;;;;;6.63;6.03;;;23.50;66.40;;;-142.21;92.64;112049.66;5114952;28;20210;-79
2022/07/22 02:18:15;;;;;;;7.60;6.90;;;23.50;66.40;;;-142.21;92.88;112049.66;5114297;28;20211;-78
2022/07/22 02:20:43;;;;;;;7.90;7.10;;;23.50;66.80;;;-142.21;93.66;112049.66;5114818;28;20276;-78
2022/07/22 02:23:11;;;;;;;7.37;6.67;;;23.50;66.70;;;-142.21;93.74;112049.66;5098381;28;20288;-79
2022/07/22 02:25:40;;;;;;;7.67;6.90;;;23.50;67.10;;;-142.21;93.80;112049.66;5114921;28;20214;-79
2022/07/22 02:28:08;;;;;;;7.23;6.40;;;23.40;67.00;;;-142.21;93.57;112049.66;5114566;28;20232;-79
2022/07/22 02:30:38;;;;;;;8.33;6.57;;;23.40;67.10;;;-142.21;94.57;112049.66;5114356;28;20238;-80
2022/07/22 02:33:06;;;;;;;7.33;6.63;;;23.20;67.70;;;-142.21;95.51;112049.66;5113801;28;20192;-79
2022/07/22 02:35:33;;;;;;;8.20;6.87;;;23.10;68.20;;;-142.21;95.73;112049.66;5114642;28;20294;-78
2022/07/22 02:38:00;;;;;;;7.30;6.60;;;23.10;68.10;;;-142.21;95.96;112049.66;5114498;28;20206;-79
2022/07/22 02:40:27;;;;;;;9.23;7.57;;;23.10;68.30;;;-142.21;96.54;112049.66;5094220;28;20307;-79
2022/07/22 02:42:55;;;;;;;8.13;7.17;;;23.00;69.10;;;-142.21;97.04;112049.66;5093287;28;20216;-79
2022/07/22 02:45:22;;;;;;;7.90;6.80;;;22.90;69.30;;;-142.21;97.07;112049.66;5094562;28;20310;-78
2022/07/22 02:47:56;;;;;;;7.60;6.90;;;22.90;69.00;;;-142.21;96.69;112049.66;5075509;28;20204;-80
2022/07/22 02:50:25;;;;;;;8.30;7.50;;;23.00;69.00;;;-142.21;96.33;112049.66;5112862;28;20660;-79
2022/07/22 02:52:53;;;;;;;7.03;6.33;;;23.00;68.90;;;-142.21;96.29;112049.66;5114077;28;20204;-78
2022/07/22 02:55:21;;;;;;;7.77;7.07;;;23.00;68.90;;;-142.21;96.32;112049.66;5114624;28;20249;-78
2022/07/22 02:57:48;;;;;;;7.60;6.80;;;23.00;68.90;;;-142.21;96.31;112049.66;5114095;28;20298;-75
2022/07/22 03:00:17;;;;;;;7.80;6.27;;;23.00;68.80;;;-142.21;96.84;112049.66;5114050;28;20214;-77
2022/07/22 03:02:44;;;;;;;7.50;6.80;;;23.00;69.10;;;-142.21;96.85;112049.66;5114240;28;20287;-79
2022/07/22 03:05:13;;;;;;;7.43;6.63;;;23.00;68.90;;;-142.21;96.50;112049.66;5113506;28;20648;-79
2022/07/22 03:07:40;;;;;;;7.07;6.37;;;23.00;68.90;;;-142.21;96.29;112049.66;5114462;28;20214;-78
2022/07/22 03:10:09;;;;;;;7.40;6.43;;;22.90;68.70;;;-142.21;96.29;112049.66;5113736;28;20315;-78
2022/07/22 03:12:37;;;;;;;7.03;6.33;;;22.90;68.70;;;-142.21;96.44;112049.66;5114239;28;20203;-78
2022/07/22 03:15:05;;;;;;;7.00;6.27;;;22.90;68.70;;;-142.21;96.09;112049.66;5113571;28;20230;-78
2022/07/22 03:17:36;;;;;;;8.00;6.67;;;22.90;68.70;;;-142.21;95.76;112049.66;5113945;28;20552;-78
2022/07/22 03:20:05;;;;;;;7.90;7.10;;;22.90;68.60;;;-142.21;95.91;112049.66;5113350;28;20629;-78
2022/07/22 03:22:33;;;;;;;7.93;7.00;;;22.80;68.60;;;-142.21;96.12;112049.66;5114101;28;20207;-79
2022/07/22 03:25:01;;;;;;;8.30;7.00;;;22.90;68.70;;;-142.21;96.25;112049.66;5113499;28;20201;-78
2022/07/22 03:27:28;;;;;;;7.47;6.60;;;22.80;68.70;;;-142.21;96.27;112049.66;5114098;28;20620;-78
2022/07/22 03:29:56;;;;;;;8.90;7.00;;;22.80;68.70;;;-142.21;96.34;112049.66;5112973;28;20216;-78
2022/07/22 03:32:23;;;;;;;8.13;7.33;;;22.70;68.60;;;-142.21;96.62;112049.66;5113444;28;20280;-78
2022/07/22 03:34:50;;;;;;;7.53;6.83;;;22.70;68.80;;;-142.21;96.85;112049.66;5113306;28;20294;-76
2022/07/22 03:37:17;;;;;;;8.13;7.33;;;22.60;68.90;;;-142.21;97.28;112049.66;5113866;28;20593;-78
2022/07/22 03:39:46;;;;;;;7.67;6.93;;;22.60;69.30;;;-142.21;97.94;112049.66;5113786;28;20299;-79
2022/07/22 03:42:13;;;;;;;8.07;7.27;;;22.60;69.70;;;-142.21;97.86;112049.66;5110999;28;20280;-78
2022/07/22 03:44:42;;;;;;;7.83;7.00;;;22.60;69.50;;;-142.21;97.96;112049.66;5113672;28;20204;-78
2022/07/22 03:47:09;;;;;;;8.00;6.53;;;22.50;69.80;;;-142.21;98.11;112049.66;5112495;28;20214;-78
2022/07/22 03:49:36;;;;;;;7.53;6.77;;;22.50;69.80;;;-142.21;98.69;112049.66;5113609;28;20210;-78
2022/07/22 03:52:04;;;;;;;7.37;6.60;;;22.60;70.00;;;-142.21;98.65;112049.66;5112696;28;20203;-77
2022/07/22 03:54:31;;;;;;;8.50;7.07;;;22.60;70.20;;;-142.21;99.03;112049.66;5112775;28;20282;-78
2022/07/22 03:56:59;;;;;;;7.93;7.13;;;22.50;70.20;;;-142.21;98.93;112049.66;5113227;28;20199;-78
2022/07/22 03:59:26;;;;;;;8.17;7.37;;;22.50;70.10;;;-142.21;98.77;112049.66;5112125;28;20294;-78
2022/07/22 04:01:56;;;;;;;7.73;6.93;;;22.50;70.10;;;-142.21;98.79;112049.66;5112509;28;20768;-78
2022/07/22 04:04:23;;;;;;;8.37;7.47;;;22.50;70.20;;;-142.21;98.61;112049.66;5113421;28;20252;-78
2022/07/22 04:06:51;;;;;;;9.60;7.23;;;22.50;70.20;;;-142.21;98.81;112049.66;5113286;28;20300;-77
2022/07/22 04:09:19;;;;;;;7.97;7.03;;;22.50;70.10;;;-142.21;99.23;112049.66;5113254;28;20545;-78
2022/07/22 04:11:47;;;;;;;7.67;6.87;;;22.50;71.20;;;-142.21;99.93;112049.66;5078017;28;20211;-79
2022/07/22 04:14:15;;;;;;;10.00;7.97;;;22.50;71.30;;;-142.21;99.71;112049.66;5112052;28;20220;-78
2022/07/22 04:16:43;;;;;;;8.07;6.93;;;22.50;70.60;;;-142.21;99.57;112049.66;5112707;28;20294;-79
2022/07/22 04:19:11;;;;;;;8.40;6.80;;;22.50;70.70;;;-142.21;99.21;112049.66;5112145;28;20285;-79
2022/07/22 04:21:39;;;;;;;9.03;7.13;;;22.50;70.70;;;-142.21;99.41;112049.66;5112713;28;20295;-78
2022/07/22 04:24:07;;;;;;;8.33;7.57;;;22.50;70.80;;;-142.21;100.00;112049.66;5094246;28;20212;-80
2022/07/22 04:26:36;;;;;;;9.33;6.90;;;22.50;71.10;;;-142.21;100.00;112049.66;5112908;28;20547;-80
2022/07/22 04:29:03;;;;;;;9.90;6.83;;;22.50;71.30;;;-142.21;99.69;112049.66;5112419;28;20243;-79
2022/07/22 04:31:32;;;;;;;8.47;7.10;;;22.60;71.20;;;-142.21;99.68;112049.66;5112632;28;20306;-78
2022/07/22 04:34:00;;;;;;;7.90;7.10;;;22.50;71.20;;;-142.21;100.00;112049.66;5112267;28;20227;-80
2022/07/22 04:36:27;;;;;;;8.07;7.27;;;22.60;71.40;;;-142.21;100.00;112049.66;5112972;28;20234;-80
2022/07/22 04:38:55;;;;;;;8.00;7.20;;;22.60;71.60;;;-142.21;100.00;112049.66;5112640;28;20286;-81
2022/07/22 04:41:22;;;;;;;8.80;7.67;;;22.60;71.40;;;-142.21;100.00;112049.66;5112261;28;20278;-78
2022/07/22 04:43:49;;;;;;;8.23;7.23;;;22.60;71.40;;;-142.21;100.00;112049.66;5112843;28;20223;-80
2022/07/22 04:46:16;;;;;;;11.17;7.70;;;22.60;71.60;;;-142.21;100.00;112049.66;5112251;28;20239;-79
2022/07/22 04:48:45;;;;;;;16.70;9.03;;;22.60;72.40;;;-142.21;100.00;112049.66;5112939;28;20212;-79
2022/07/22 04:51:12;;;;;;;15.60;9.83;;;22.70;72.10;;;-142.21;100.00;112049.66;5112167;28;20200;-79
2022/07/22 04:53:39;;;;;;;13.20;9.00;;;22.70;72.20;;;-142.21;100.00;112049.66;5112271;28;20203;-79
2022/07/22 04:56:07;;;;;;;15.57;8.80;;;22.70;73.00;;;-142.21;100.00;112049.66;5111637;28;20215;-78
2022/07/22 04:58:35;;;;;;;13.13;9.00;;;22.70;72.20;;;-142.21;100.00;112049.66;5112757;28;20199;-79
2022/07/22 05:01:02;;;;;;;13.50;8.23;;;22.70;71.80;;;-142.21;100.00;112049.66;5111807;28;20294;-78
2022/07/22 05:03:30;;;;;;;9.67;7.40;;;22.80;71.90;;;-142.21;100.00;112049.66;5112655;28;20214;-78
2022/07/22 05:05:59;;;;;;;12.80;8.47;;;22.80;71.80;;;-142.21;100.00;112049.66;5115536;28;20236;-78
2022/07/22 05:08:26;;;;;;;8.97;7.63;;;22.80;71.90;;;-142.21;100.00;112049.66;5116312;28;20295;-79
2022/07/22 05:10:53;;;;;;;8.23;7.17;;;22.90;72.60;;;-142.21;100.00;112049.66;5116037;28;20762;-77
2022/07/22 05:13:20;;;;;;;8.03;7.20;;;22.90;71.40;;;-142.21;100.00;112049.66;5116641;28;20294;-78
2022/07/22 05:15:47;;;;;;;8.77;7.27;;;22.90;71.50;;;-142.21;100.00;112049.66;5116710;28;20312;-77
2022/07/22 05:18:14;;;;;;;7.80;7.10;;;23.00;71.80;;;-142.21;100.00;112049.66;5115803;28;20207;-79
2022/07/22 05:20:41;;;;;;;9.57;7.70;;;23.00;72.30;;;-142.21;100.00;112049.66;5116470;28;20239;-78
2022/07/22 05:23:10;;;;;;;8.03;7.23;;;23.00;71.30;;;-142.21;100.00;112049.66;5115415;28;20288;-79
2022/07/22 05:25:37;;;;;;;7.63;6.73;;;23.10;71.30;;;-142.21;100.00;112049.66;5115957;28;20288;-78
2022/07/22 05:28:05;;;;;;;7.90;7.10;;;23.10;71.10;;;-142.21;99.64;112049.66;5115717;28;20200;-79
2022/07/22 05:30:32;;;;;;;7.07;6.23;;;23.20;71.00;;;-142.21;99.05;112049.66;5115801;28;20232;-79
2022/07/22 05:32:59;;;;;;;7.80;7.00;;;23.20;70.70;;;-142.21;98.89;112049.66;5115504;28;20195;-79
2022/07/22 05:35:27;;;;;;;9.27;6.97;;;23.30;70.60;;;-142.21;98.11;112049.66;5116198;28;20318;-76
2022/07/22 05:37:54;;;;;;;8.27;7.47;;;23.30;70.20;;;-142.21;97.68;112049.66;5116385;28;20289;-78
2022/07/22 05:40:23;;;;;;;7.60;6.47;;;23.30;69.90;;;-142.21;96.85;112049.66;5115863;28;20626;-76
2022/07/22 05:42:50;;;;;;;6.97;6.10;;;23.40;69.50;;;-142.21;96.92;112049.66;5115922;28;20299;-68
2022/07/22 05:45:17;;;;;;;7.17;5.90;;;23.40;69.40;;;-142.21;96.44;112049.66;5115051;28;20292;-69
2022/07/22 05:47:44;;;;;;;7.47;6.60;;;23.50;69.40;;;-142.21;96.22;112049.66;5115445;28;20248;-69
2022/07/22 05:50:11;;;;;;;11.57;6.43;;;23.50;69.30;;;-142.21;95.27;112049.66;5115324;28;20613;-69
2022/07/22 05:52:39;;;;;;;7.20;5.93;;;23.60;68.70;;;-142.21;94.79;112049.66;5115362;28;20204;-68
2022/07/22 05:55:08;;;;;;;7.80;6.47;;;23.70;68.50;;;-142.21;94.76;112049.66;5113892;28;20235;-69
2022/07/22 05:57:36;;;;;;;7.23;6.53;;;23.80;68.40;;;-142.21;94.70;112049.66;5114575;28;20210;-67
2022/07/22 06:00:05;;;;;;;7.10;6.00;;;23.80;68.00;;;-142.21;94.08;112049.66;5113873;28;20184;-70
2022/07/22 06:02:33;;;;;;;8.57;5.93;;;23.90;67.70;;;-142.21;94.08;112049.66;5116030;28;20198;-70
2022/07/22 06:05:00;;;;;;;7.40;6.23;;;24.00;67.60;;;-142.21;93.97;112049.66;5115584;28;20302;-71
2022/07/22 06:07:27;;;;;;;7.43;6.20;;;24.10;67.50;;;-142.21;93.13;112049.66;5115392;28;20682;-70
2022/07/22 06:09:54;;;;;;;7.07;6.13;;;24.20;66.90;;;-142.21;93.45;112049.66;5114747;28;20302;-71
2022/07/22 06:12:22;;;;;;;7.40;6.67;;;24.30;66.80;;;-142.21;93.96;112049.66;5114532;28;20727;-70
2022/07/22 06:14:50;;;;;;;7.33;5.83;;;24.40;66.90;;;-142.21;93.35;112049.66;5115313;28;20380;-70
2022/07/22 06:17:18;;;;;;;7.30;6.03;;;24.40;66.80;;;-142.21;93.79;112049.66;5113769;28;20290;-70
2022/07/22 06:19:45;;;;;;;7.03;6.33;;;24.50;66.40;;;-142.21;93.81;112049.66;5115379;28;20200;-70
2022/07/22 06:22:12;;;;;;;6.87;5.43;;;24.60;66.70;;;-142.21;92.21;112049.66;5114420;28;20724;-70
2022/07/22 06:24:39;;;;;;;6.77;6.13;;;24.60;65.80;;;-142.21;91.64;112049.66;5114877;28;20204;-71
2022/07/22 06:27:06;;;;;;;8.03;6.73;;;24.70;65.60;;;-142.21;91.34;112049.66;5113625;28;20286;-70
2022/07/22 06:29:33;;;;;;;8.03;6.43;;;24.80;65.60;;;-142.21;91.82;112049.66;5115139;28;20290;-70
2022/07/22 06:32:01;;;;;;;6.77;5.97;;;24.80;65.60;;;-142.21;91.49;112049.66;5113645;28;20313;-70
2022/07/22 06:34:29;;;;;;;7.20;5.87;;;24.90;65.40;;;-142.21;90.85;112049.66;5114778;28;20310;-70
2022/07/22 06:36:56;;;;;;;7.60;6.70;;;25.00;65.00;;;-142.21;90.57;112049.66;5114494;28;20203;-70
2022/07/22 06:39:23;;;;;;;6.90;6.20;;;25.00;64.70;;;-142.21;90.42;112049.66;5113885;28;20291;-70
2022/07/22 06:41:50;;;;;;;7.13;6.17;;;25.10;64.60;;;-142.21;89.71;112049.66;5114750;28;20221;-70
2022/07/22 06:44:18;;;;;;;8.47;6.40;;;25.20;64.40;;;-142.21;89.49;112049.66;5112854;28;20236;-71
2022/07/22 06:46:45;;;;;;;6.60;5.90;;;25.30;64.10;;;-142.21;89.55;112049.66;5114414;28;20234;-70
2022/07/22 06:49:16;;;;;;;7.73;6.20;;;25.30;64.80;;;-142.21;89.03;112049.66;5113142;28;20640;-71
2022/07/22 06:51:44;;;;;;;6.93;6.23;;;25.40;63.80;;;-142.21;88.31;112049.66;5114173;28;20700;-74
2022/07/22 06:54:11;;;;;;;7.03;6.33;;;25.50;63.40;;;-142.21;88.10;112049.66;5095484;28;20231;-74
2022/07/22 06:56:38;;;;;;;8.07;6.83;;;25.60;63.30;;;-142.21;88.16;112049.66;5114235;28;20226;-74
2022/07/22 06:59:05;;;;;;;8.57;6.63;;;25.60;63.20;;;-142.21;88.44;112049.66;5113885;28;20203;-74
2022/07/22 07:01:32;;;;;;;8.33;6.27;;;25.60;63.20;;;-142.21;88.12;112049.66;5113996;28;20200;-74
2022/07/22 07:04:00;;;;;;;7.60;6.80;;;25.60;63.20;;;-142.21;88.84;112049.66;5114275;28;20218;-74
2022/07/22 07:06:29;;;;;;;8.10;6.47;;;25.70;63.30;;;-142.21;89.13;112049.66;5113373;28;20611;-74
2022/07/22 07:08:57;;;;;;;7.53;6.70;;;25.70;63.70;;;-142.21;88.77;112049.66;5110858;28;20200;-75
2022/07/22 07:11:27;;;;;;;6.60;5.93;;;25.70;63.30;;;-142.21;88.34;112049.66;5113848;28;20231;-73
2022/07/22 07:13:54;;;;;;;8.87;6.37;;;25.80;63.20;;;-142.21;88.58;112049.66;5114417;28;20212;-75
2022/07/22 07:16:21;;;;;;;7.07;6.37;;;25.80;63.20;;;-142.21;88.07;112049.66;5113768;28;20259;-75
2022/07/22 07:18:48;;;;;;;7.13;6.43;;;25.80;62.90;;;-142.21;87.68;112049.66;5114111;28;20227;-75
2022/07/22 07:21:15;;;;;;;7.27;6.57;;;25.90;62.70;;;-142.21;87.34;112049.66;5112886;28;20231;-74
2022/07/22 07:23:44;;;;;;;6.53;5.93;;;26.00;62.80;;;-142.21;87.90;112049.66;5114405;28;20207;-75
2022/07/22 07:26:11;;;;;;;7.90;6.53;;;26.10;62.90;;;-142.21;87.43;112049.66;5113211;28;20651;-74
2022/07/22 07:28:38;;;;;;;6.70;6.10;;;26.10;62.50;;;-142.21;86.45;112049.66;5112973;28;20652;-73
2022/07/22 07:31:06;;;;;;;7.70;6.90;;;26.20;62.20;;;-142.21;87.67;112049.66;5112845;28;20270;-74
2022/07/22 07:33:34;;;;;;;6.50;5.90;;;26.30;62.60;;;-142.21;86.47;112049.66;5113615;28;20287;-74
2022/07/22 07:36:01;;;;;;;7.17;6.13;;;26.30;62.00;;;-142.21;86.57;112049.66;5113659;28;20263;-74
2022/07/22 07:38:29;;;;;;;6.67;6.07;;;26.40;62.00;;;-142.21;85.29;112049.66;5113489;28;20238;-73
2022/07/22 07:40:58;;;;;;;8.77;6.30;;;26.40;61.40;;;-142.21;85.34;112049.66;5113639;28;20294;-74
2022/07/22 07:43:28;;;;;;;8.53;6.33;;;26.50;61.40;;;-142.21;85.57;112049.66;5112808;28;20241;-74
2022/07/22 07:45:55;;;;;;;7.50;6.37;;;26.60;61.50;;;-142.21;84.50;112049.66;5113752;28;20234;-74
2022/07/22 07:48:25;;;;;;;7.13;6.17;;;26.60;60.90;;;-142.21;84.33;112049.66;5112759;28;20207;-74
2022/07/22 07:50:53;;;;;;;6.60;5.90;;;26.70;60.60;;;-142.21;85.40;112049.66;5113128;28;20180;-74
2022/07/22 07:53:21;;;;;;;8.17;6.40;;;26.70;61.10;;;-142.21;84.85;112049.66;5112707;28;20210;-74
2022/07/22 07:55:49;;;;;;;7.10;6.17;;;26.80;60.80;;;-142.21;82.75;112049.66;5112289;28;20310;-74
2022/07/22 07:58:18;;;;;;;6.87;5.87;;;26.90;60.00;;;-142.21;83.85;112049.66;5112693;28;20589;-74
2022/07/22 08:00:46;;;;;;;7.07;6.20;;;27.00;60.20;;;-142.21;83.28;112049.66;5113330;28;20648;-72
2022/07/22 08:03:13;;;;;;;7.90;6.87;;;27.10;60.20;;;-142.21;83.38;112049.66;5112241;28;20254;-74
2022/07/22 08:05:42;;;;;;;8.77;6.20;;;27.20;60.20;;;-142.21;81.53;112049.66;5112955;28;20246;-75
2022/07/22 08:08:09;;;;;;;6.50;5.90;;;27.30;59.50;;;-142.21;81.74;112049.66;5112476;28;20204;-74
2022/07/22 08:10:36;;;;;;;7.57;6.17;;;27.30;59.50;;;-142.21;81.71;112049.66;5113193;28;20227;-74
2022/07/22 08:13:05;;;;;;;5.90;5.40;;;27.40;59.30;;;-142.21;81.02;112049.66;5112469;28;20239;-73
2022/07/22 08:15:34;;;;;;;6.37;5.77;;;27.50;59.00;;;-142.21;80.81;112049.66;5112550;28;20789;-74
2022/07/22 08:18:01;;;;;;;7.53;6.10;;;27.60;58.90;;;-142.21;79.52;112049.66;5112671;28;20298;-73
2022/07/22 08:20:29;;;;;;;6.93;6.03;;;27.60;59.00;;;-142.21;79.69;112049.66;5112003;28;20200;-74
2022/07/22 08:22:59;;;;;;;6.57;5.80;;;27.80;58.60;;;-142.21;80.57;112049.66;5112984;28;20203;-73
2022/07/22 08:25:26;;;;;;;6.33;5.70;;;27.80;58.80;;;-142.21;79.60;112049.66;5111955;28;20197;-74
2022/07/22 08:27:54;;;;;;;5.97;5.37;;;27.90;58.50;;;-142.21;77.68;112049.66;5112715;28;20205;-74
2022/07/22 08:30:23;;;;;;;6.20;5.60;;;27.90;57.80;;;-142.21;77.80;112049.66;5111684;28;20236;-73
2022/07/22 08:32:51;;;;;;;5.90;5.40;;;28.00;57.90;;;-142.21;77.59;112049.66;5111964;28;20640;-73
2022/07/22 08:35:19;;;;;;;7.90;5.57;;;28.10;57.80;;;-142.21;76.51;112049.66;5112160;28;20634;-73
2022/07/22 08:37:47;;;;;;;9.13;6.27;;;28.20;57.40;;;-142.21;77.35;112049.66;5112585;28;20197;-74
2022/07/22 08:40:16;;;;;;;7.47;5.57;;;28.20;57.60;;;-142.21;75.14;112049.66;5117426;28;20208;-74
2022/07/22 08:42:46;;;;;;;6.73;5.03;;;28.30;57.00;;;-142.21;75.25;112049.66;5119633;28;20297;-73
2022/07/22 08:45:13;;;;;;;6.20;5.60;;;28.30;56.90;;;-142.21;72.77;112049.66;5082918;28;20237;-73
2022/07/22 08:47:41;;;;;;;5.63;5.13;;;28.40;56.40;;;-142.21;72.27;112049.66;5119524;28;20238;-75
2022/07/22 08:50:10;;;;;;;6.67;5.70;;;28.40;56.10;;;-142.21;73.74;112049.66;5118735;28;20262;-74
2022/07/22 08:52:37;;;;;;;9.17;6.83;;;28.50;56.60;;;-142.21;71.12;112049.66;5118227;28;20628;-74
2022/07/22 08:55:06;;;;;;;6.33;5.70;;;28.50;55.70;;;-142.21;71.62;112049.66;5119298;28;20264;-75
2022/07/22 08:57:33;;;;;;;6.60;5.60;;;28.60;56.00;;;-142.21;72.19;112049.66;5119317;28;20204;-74
2022/07/22 09:00:04;;;;;;;5.83;5.33;;;28.70;56.00;;;-142.21;72.35;112049.66;5119065;28;20194;-74
2022/07/22 09:02:42;;;;;;;5.83;5.23;;;28.80;56.00;;;-142.21;70.01;112049.66;5098812;28;20204;-73
2022/07/22 09:05:13;;;;;;;6.23;5.43;;;28.90;55.30;;;-142.21;72.53;112049.66;5118229;28;20203;-74
2022/07/22 09:07:44;;;;;;;6.00;5.40;;;29.00;56.00;;;-142.21;73.13;112049.66;5118995;28;20285;-73
2022/07/22 09:10:16;;;;;;;6.10;5.47;;;29.20;56.10;;;-142.21;71.24;112049.66;5118909;28;20297;-74
2022/07/22 09:12:57;;;;;;;6.00;5.37;;;29.20;55.50;;;-142.21;67.56;112049.66;5119281;28;20739;-74
2022/07/22 09:15:30;;;;;;;5.50;5.00;;;29.30;54.50;;;-142.21;67.57;112049.66;5118668;28;20208;-74
2022/07/22 09:17:59;;;;;;;5.40;4.90;;;29.40;54.40;;;-142.21;66.84;112049.66;5117505;28;20194;-73
2022/07/22 09:20:29;;;;;;;5.70;5.20;;;29.40;54.70;;;-142.21;67.80;112049.66;5115205;28;20208;-73
2022/07/22 09:22:57;;;;;;;6.17;5.37;;;29.50;54.40;;;-142.21;66.62;112049.66;5119318;28;20236;-74
2022/07/22 09:25:31;;;;;;;7.07;5.80;;;29.50;54.00;;;-142.21;65.96;112049.66;5118452;28;20263;-74
2022/07/22 09:28:15;;;;;;;5.80;5.13;;;29.60;53.80;;;-142.21;68.31;112049.66;5119403;28;20190;-74
2022/07/22 09:30:49;;;;;;;6.43;5.53;;;29.70;54.40;;;-142.21;65.68;112049.66;5117800;28;20227;-75
2022/07/22 09:33:17;;;;;;;6.73;5.33;;;29.90;53.90;;;-142.21;66.36;112049.66;5118357;28;20195;-73
2022/07/22 09:35:46;;;;;;;6.57;5.20;;;30.00;53.80;;;-142.21;66.16;112049.66;5118178;28;20719;-73
2022/07/22 09:38:16;;;;;;;5.70;5.13;;;30.00;53.70;;;-142.21;65.68;112049.66;5118470;28;20207;-74
2022/07/22 09:40:46;;;;;;;6.27;5.47;;;30.20;53.80;;;-142.21;66.33;112049.66;5118684;28;20238;-74
2022/07/22 09:43:17;;;;;;;6.77;5.27;;;30.20;53.70;;;-142.21;63.60;112049.66;5118388;28;20284;-74
2022/07/22 09:45:50;;;;;;;5.53;5.03;;;30.40;53.20;;;-142.21;63.46;112049.66;5118560;28;20197;-74
2022/07/22 09:48:19;;;;;;;6.53;5.60;;;30.40;52.90;;;-142.21;60.55;112049.66;5118633;28;20252;-73
2022/07/22 09:50:49;;;;;;;5.40;4.90;;;30.50;52.30;;;-142.21;58.62;112049.66;5117295;28;20234;-73
2022/07/22 09:53:21;;;;;;;6.13;5.53;;;30.60;51.70;;;-142.21;58.46;112049.66;5115307;28;20230;-74
2022/07/22 09:55:48;;;;;;;5.83;5.33;;;30.60;51.70;;;-142.21;61.60;112049.66;5115660;28;20258;-74
2022/07/22 09:58:16;;;;;;;5.87;5.00;;;30.70;52.40;;;-142.21;59.29;112049.66;5115383;28;20206;-74
2022/07/22 10:00:47;;;;;;;5.93;5.03;;;30.80;52.10;;;-142.21;57.93;112049.66;5114843;28;20207;-74
2022/07/22 10:03:22;;;;;;;5.93;5.33;;;30.90;51.50;;;-142.21;57.89;112049.66;5114873;28;20211;-74